Time;durP1;ratioP1;P1;durP2;ratioP2;P2;SDS_P1;SDS_P2;PMS_P1;PMS_P2;Temp;Humidity;BMP_temperature;BMP_pressure;BME280_temperature;BME280_humidity;BME280_pressure;Samples;Min_cycle;Max_cycle;Signal;HPM_P1;HPM_P2
2023/11/01 00:09:06;;;;;;;11.20;4.60;;;11.50;99.90;;;;;;20368237;29;21458;-44
2023/11/01 00:19:07;;;;;;;8.73;3.72;;;11.50;99.90;;;;;;20378530;29;20142;-44
2023/11/01 00:29:08;;;;;;;9.45;3.88;;;11.60;99.90;;;;;;20381574;29;20044;-43
2023/11/01 00:39:08;;;;;;;11.07;3.95;;;11.60;99.90;;;;;;20376245;29;20059;-44
2023/11/01 00:49:09;;;;;;;13.32;4.57;;;11.60;99.90;;;;;;20375697;29;20067;-44
2023/11/01 00:59:09;;;;;;;13.25;5.05;;;11.70;99.90;;;;;;20372756;29;20744;-44
2023/11/01 01:09:12;;;;;;;13.50;6.60;;;11.70;99.90;;;;;;20350851;29;20075;-43
2023/11/01 01:19:12;;;;;;;18.58;7.75;;;11.70;99.90;;;;;;20337974;29;20067;-43
2023/11/01 01:29:13;;;;;;;16.95;7.60;;;11.70;99.90;;;;;;20341679;29;20664;-43
2023/11/01 01:39:13;;;;;;;18.27;7.40;;;11.60;99.90;;;;;;20339052;29;20039;-44
2023/11/01 01:49:14;;;;;;;16.58;7.20;;;11.70;99.90;;;;;;20338567;29;20421;-43
2023/11/01 01:59:15;;;;;;;14.07;7.60;;;11.70;99.90;;;;;;20331811;29;20079;-44
2023/11/01 02:09:16;;;;;;;14.40;6.70;;;11.70;99.90;;;;;;20335705;29;20056;-43
2023/11/01 02:19:17;;;;;;;11.68;6.43;;;11.70;99.90;;;;;;20327247;29;20464;-43
2023/11/01 02:29:17;;;;;;;12.52;6.38;;;11.70;99.90;;;;;;20304392;29;20067;-43
2023/11/01 02:39:18;;;;;;;11.75;5.43;;;11.80;99.90;;;;;;20327602;29;20048;-43
2023/11/01 02:49:18;;;;;;;12.70;5.68;;;11.60;99.90;;;;;;20325794;29;20119;-43
2023/11/01 02:59:19;;;;;;;12.93;4.93;;;11.70;99.90;;;;;;20328876;29;20903;-42
2023/11/01 03:09:20;;;;;;;12.50;4.68;;;11.60;99.90;;;;;;20318450;29;20453;-43
2023/11/01 03:19:20;;;;;;;9.77;4.60;;;11.60;99.90;;;;;;20333696;29;20068;-43
2023/11/01 03:29:21;;;;;;;14.50;5.20;;;11.70;99.90;;;;;;20347310;29;20556;-43
2023/11/01 03:39:21;;;;;;;14.30;4.77;;;11.60;99.90;;;;;;20332299;29;20138;-44
2023/11/01 03:49:29;;;;;;;15.15;7.15;;;11.60;99.90;;;;;;20356902;29;20500;-42
2023/11/01 03:59:33;;;;;;;12.05;7.20;;;11.80;99.90;;;;;;20351967;29;20055;-43
2023/11/01 04:09:33;;;;;;;15.18;6.88;;;11.80;99.90;;;;;;20344541;29;20080;-43
2023/11/01 04:19:34;;;;;;;11.88;6.40;;;11.80;99.90;;;;;;20345864;29;20111;-44
2023/11/01 04:29:34;;;;;;;11.40;6.65;;;11.80;99.90;;;;;;20360037;29;20626;-44
2023/11/01 04:39:36;;;;;;;9.85;6.82;;;11.70;99.90;;;;;;20360021;29;20072;-43
2023/11/01 04:49:37;;;;;;;7.40;5.15;;;11.90;99.90;;;;;;20365386;29;20090;-43
2023/11/01 04:59:37;;;;;;;9.00;5.97;;;12.00;99.90;;;;;;20360081;29;20052;-43
2023/11/01 05:09:38;;;;;;;8.80;6.40;;;11.90;99.90;;;;;;20370184;29;20465;-43
2023/11/01 05:19:38;;;;;;;12.18;8.02;;;12.00;99.90;;;;;;20382242;29;20086;-43
2023/11/01 05:29:40;;;;;;;16.60;9.40;;;12.00;99.90;;;;;;20380414;29;20158;-44
2023/11/01 05:39:40;;;;;;;15.48;9.88;;;12.10;99.90;;;;;;20384193;29;20066;-44
2023/11/01 05:49:41;;;;;;;13.70;10.95;;;12.20;99.90;;;;;;20380736;29;20360;-44
2023/11/01 05:59:42;;;;;;;16.55;11.50;;;12.20;99.90;;;;;;20383536;29;20115;-44
2023/11/01 06:09:43;;;;;;;19.08;12.93;;;12.30;99.90;;;;;;20377764;29;20221;-43
2023/11/01 06:19:44;;;;;;;25.45;12.77;;;12.50;99.90;;;;;;20348098;29;20146;-43
2023/11/01 06:29:45;;;;;;;21.38;9.55;;;12.50;99.90;;;;;;20357843;29;20044;-42
2023/11/01 06:39:46;;;;;;;17.48;7.30;;;12.70;99.90;;;;;;20357385;29;20070;-43
2023/11/01 06:49:47;;;;;;;16.60;5.87;;;12.70;99.90;;;;;;20369410;29;20047;-43
2023/11/01 06:59:47;;;;;;;15.32;6.18;;;12.70;99.90;;;;;;20355417;29;20215;-42
2023/11/01 07:09:48;;;;;;;18.23;6.82;;;12.80;99.90;;;;;;20344914;29;20365;-43
2023/11/01 07:19:50;;;;;;;13.95;5.78;;;12.80;99.90;;;;;;20365690;29;20526;-43
2023/11/01 07:29:50;;;;;;;17.83;6.68;;;12.80;99.90;;;;;;20356229;29;20044;-43
2023/11/01 07:39:51;;;;;;;17.48;6.35;;;12.80;99.90;;;;;;20364650;29;20081;-43
2023/11/01 07:49:53;;;;;;;15.45;5.55;;;12.90;99.90;;;;;;20359994;29;20054;-43
2023/11/01 07:59:53;;;;;;;13.77;4.32;;;13.00;99.90;;;;;;20359208;29;20570;-43
2023/11/01 08:09:54;;;;;;;16.38;3.97;;;13.00;99.90;;;;;;20360112;29;20976;-42
2023/11/01 08:19:54;;;;;;;15.35;4.22;;;13.00;99.90;;;;;;20368754;29;20151;-43
2023/11/01 08:29:55;;;;;;;11.98;3.17;;;13.00;99.90;;;;;;20367294;29;20047;-42
2023/11/01 08:39:56;;;;;;;17.00;4.68;;;13.10;99.90;;;;;;20362539;29;20074;-43
2023/11/01 08:49:56;;;;;;;15.13;4.05;;;13.10;99.90;;;;;;20365706;29;20130;-43
2023/11/01 08:59:57;;;;;;;15.10;3.47;;;13.10;99.90;;;;;;20368195;29;20052;-43
2023/11/01 09:09:58;;;;;;;13.50;3.10;;;13.20;99.90;;;;;;20361573;29;20040;-43
2023/11/01 09:19:59;;;;;;;17.38;3.63;;;13.30;99.90;;;;;;20362347;29;20262;-43
2023/11/01 09:29:59;;;;;;;14.65;3.20;;;13.30;99.90;;;;;;20363551;29;20044;-42
2023/11/01 09:40:00;;;;;;;10.98;2.63;;;13.40;99.90;;;;;;20364259;29;20145;-42
2023/11/01 09:50:01;;;;;;;13.88;3.15;;;13.40;99.90;;;;;;20358356;29;21000;-42
2023/11/01 10:00:03;;;;;;;11.18;2.58;;;13.60;99.90;;;;;;20374209;29;20051;-42
2023/11/01 10:10:04;;;;;;;11.90;2.10;;;13.70;99.90;;;;;;20373898;29;20374;-44
2023/11/01 10:20:19;;;;;;;12.48;4.85;;;13.70;99.90;;;;;;20375462;29;20163;-44
2023/11/01 10:30:20;;;;;;;7.18;1.65;;;13.80;99.90;;;;;;20371221;29;20043;-43
2023/11/01 10:40:21;;;;;;;8.73;1.90;;;13.90;99.90;;;;;;20362069;29;20054;-43
2023/11/01 10:50:25;;;;;;;7.97;1.73;;;14.00;89.20;;;;;;20350977;29;20048;-43
2023/11/01 11:00:37;;;;;;;8.85;1.80;;;14.20;60.10;;;;;;20353277;29;20055;-43
2023/11/01 11:10:42;;;;;;;9.30;1.83;;;14.10;53.40;;;;;;20355988;29;20131;-43
2023/11/01 11:20:43;;;;;;;8.55;1.50;;;14.00;36.20;;;;;;20341170;29;20067;-43
2023/11/01 11:31:07;;;;;;;6.47;1.50;;;14.00;46.50;;;;;;20349687;29;20052;-43
2023/11/01 11:41:11;;;;;;;5.28;1.40;;;14.00;33.60;;;;;;20361931;29;20048;-43
2023/11/01 11:51:11;;;;;;;8.65;1.60;;;14.20;23.80;;;;;;20364131;29;20484;-43
2023/11/01 12:01:26;;;;;;;7.88;1.30;;;14.30;23.70;;;;;;20365343;29;20640;-43
2023/11/01 12:11:28;;;;;;;8.65;1.65;;;14.50;15.20;;;;;;20364480;29;20147;-43
2023/11/01 12:21:29;;;;;;;9.10;1.52;;;14.60;10.40;;;;;;20364659;29;20048;-43
2023/11/01 12:31:30;;;;;;;7.65;1.60;;;14.70;2.00;;;;;;20360242;29;20456;-43
2023/11/01 12:41:31;;;;;;;6.40;1.38;;;14.70;6.80;;;;;;20365766;29;20044;-43
2023/11/01 12:51:31;;;;;;;11.20;2.05;;;14.90;1.00;;;;;;20379093;29;20066;-43
2023/11/01 13:01:32;;;;;;;10.13;1.67;;;14.90;1.00;;;;;;20373709;29;20079;-43
2023/11/01 13:11:32;;;;;;;5.53;1.38;;;15.00;1.00;;;;;;20366570;29;20035;-42
2023/11/01 13:21:33;;;;;;;4.75;1.13;;;15.70;1.00;;;;;;20361096;29;20113;-43
2023/11/01 13:31:33;;;;;;;4.55;1.10;;;15.80;1.00;;;;;;20352526;29;20175;-42
2023/11/01 13:41:34;;;;;;;9.75;1.45;;;15.20;1.00;;;;;;20376224;29;20118;-43
2023/11/01 13:51:35;;;;;;;9.48;2.53;;;15.00;1.00;;;;;;20362300;29;20436;-42
2023/11/01 14:01:35;;;;;;;5.13;1.27;;;14.90;1.00;;;;;;20354614;29;20453;-43
2023/11/01 14:11:36;;;;;;;8.13;0.98;;;14.90;1.00;;;;;;20354065;29;20772;-42
2023/11/01 14:21:36;;;;;;;5.78;1.73;;;14.70;1.00;;;;;;20364457;29;20074;-43
2023/11/01 14:31:37;;;;;;;5.60;1.23;;;14.70;1.00;;;;;;20364678;29;20364;-42
2023/11/01 14:41:37;;;;;;;4.00;1.13;;;14.60;1.00;;;;;;20333192;29;20781;-42
2023/11/01 14:51:41;;;;;;;5.10;1.40;;;14.60;1.00;;;;;;20349321;29;20082;-43
2023/11/01 15:01:44;;;;;;;4.25;1.20;;;14.50;1.00;;;;;;20352486;29;20499;-42
2023/11/01 15:11:48;;;;;;;3.95;1.08;;;14.60;1.00;;;;;;20351015;29;20134;-42
2023/11/01 15:21:49;;;;;;;6.07;1.27;;;14.40;1.00;;;;;;20349560;29;20059;-42
2023/11/01 15:31:50;;;;;;;6.32;1.30;;;14.00;1.00;;;;;;20354527;29;20135;-42
2023/11/01 15:41:50;;;;;;;4.70;1.35;;;13.60;21.70;;;;;;20349532;29;20044;-43
2023/11/01 15:51:51;;;;;;;4.65;1.10;;;13.20;62.40;;;;;;20357786;29;20052;-43
2023/11/01 16:01:52;;;;;;;4.57;1.17;;;12.90;90.20;;;;;;20348620;28;20493;-43
2023/11/01 16:11:52;;;;;;;5.07;1.58;;;12.90;79.80;;;;;;20341964;29;20051;-43
2023/11/01 16:21:53;;;;;;;6.00;1.00;;;12.90;65.10;;;;;;20344635;29;20062;-43
2023/11/01 16:31:53;;;;;;;4.45;1.10;;;12.80;66.40;;;;;;20368382;29;20077;-43
2023/11/01 16:41:54;;;;;;;3.33;1.10;;;12.90;48.80;;;;;;20358372;29;20078;-43
2023/11/01 16:51:54;;;;;;;3.78;1.33;;;13.00;37.10;;;;;;20317266;29;21069;-43
2023/11/01 17:01:55;;;;;;;4.15;1.48;;;12.70;91.50;;;;;;20355808;29;20071;-42
2023/11/01 17:11:57;;;;;;;6.38;1.30;;;12.50;92.10;;;;;;20368611;29;20542;-43
2023/11/01 17:21:58;;;;;;;5.85;1.27;;;12.50;81.00;;;;;;20366799;29;20075;-43
2023/11/01 17:31:58;;;;;;;4.25;1.33;;;12.40;67.70;;;;;;20366023;29;20559;-43
2023/11/01 17:42:00;;;;;;;3.33;1.40;;;12.40;57.20;;;;;;20354937;29;20416;-42
2023/11/01 17:52:04;;;;;;;4.55;1.35;;;12.40;43.80;;;;;;20339116;29;20107;-42
2023/11/01 18:02:26;;;;;;;6.25;1.58;;;12.40;29.30;;;;;;20334619;29;20125;-42
2023/11/01 18:12:30;;;;;;;5.07;1.30;;;12.40;29.30;;;;;;20325911;29;20115;-42
2023/11/01 18:22:41;;;;;;;7.30;1.80;;;12.30;33.40;;;;;;20349282;29;20048;-43
2023/11/01 18:32:42;;;;;;;7.15;2.92;;;12.20;46.90;;;;;;20339325;29;20140;-44
2023/11/01 18:42:47;;;;;;;4.95;1.58;;;12.30;40.40;;;;;;20319211;29;20047;-43
2023/11/01 18:52:47;;;;;;;6.78;2.00;;;12.30;31.20;;;;;;20332124;29;20071;-43
2023/11/01 19:03:06;;;;;;;3.78;1.40;;;12.20;32.80;;;;;;20325162;29;20055;-43
2023/11/01 19:13:06;;;;;;;6.65;1.58;;;12.10;36.30;;;;;;20346159;29;20079;-43
2023/11/01 19:23:07;;;;;;;6.63;1.77;;;12.10;38.90;;;;;;20317467;29;20051;-43
2023/11/01 19:33:07;;;;;;;4.75;1.67;;;12.00;44.00;;;;;;20321945;29;20530;-42
2023/11/01 19:43:08;;;;;;;5.97;1.40;;;12.00;33.00;;;;;;20329159;29;20138;-43
2023/11/01 19:53:09;;;;;;;5.63;1.40;;;11.90;35.20;;;;;;20318575;29;20508;-42
2023/11/01 20:03:10;;;;;;;6.18;1.90;;;11.90;31.50;;;;;;20318418;29;20060;-43
2023/11/01 20:13:10;;;;;;;5.45;2.10;;;11.80;35.30;;;;;;20349536;29;20039;-43
2023/11/01 20:23:11;;;;;;;6.18;2.03;;;11.70;39.10;;;;;;20349768;29;20063;-43
2023/11/01 20:33:11;;;;;;;4.70;1.48;;;11.70;41.70;;;;;;20353908;29;20047;-43
2023/11/01 20:43:12;;;;;;;3.73;1.43;;;11.80;22.50;;;;;;20353516;29;20047;-42
2023/11/01 20:53:13;;;;;;;2.85;1.30;;;11.70;21.30;;;;;;20341528;29;20098;-43
2023/11/01 21:03:13;;;;;;;4.15;1.33;;;11.60;21.70;;;;;;20338856;29;20624;-43
2023/11/01 21:13:14;;;;;;;6.25;1.50;;;11.50;16.80;;;;;;20334278;29;20047;-43
2023/11/01 21:23:15;;;;;;;6.07;1.25;;;11.40;13.30;;;;;;20339810;29;20683;-43
2023/11/01 21:33:20;;;;;;;6.15;1.30;;;11.40;9.70;;;;;;20337738;29;20051;-43
2023/11/01 21:43:21;;;;;;;4.30;1.45;;;11.30;9.40;;;;;;20345236;29;20162;-43
2023/11/01 21:53:22;;;;;;;5.10;1.47;;;11.10;8.90;;;;;;20342587;29;20210;-43
2023/11/01 22:03:46;;;;;;;3.45;1.35;;;11.00;18.00;;;;;;20334803;29;20048;-42
2023/11/01 22:13:47;;;;;;;7.22;1.60;;;10.90;23.70;;;;;;20330961;29;20062;-43
2023/11/01 22:23:47;;;;;;;5.05;1.38;;;10.90;20.70;;;;;;20331719;29;20043;-43
2023/11/01 22:33:48;;;;;;;4.53;1.10;;;10.80;22.10;;;;;;20357699;29;20039;-43
2023/11/01 22:43:51;;;;;;;4.75;1.35;;;10.80;20.10;;;;;;20362750;29;20054;-43
2023/11/01 22:53:51;;;;;;;4.40;1.25;;;10.90;12.40;;;;;;20377952;29;20044;-43
2023/11/01 23:03:52;;;;;;;4.40;1.13;;;10.90;13.20;;;;;;20360983;29;20075;-44
2023/11/01 23:13:52;;;;;;;7.13;2.40;;;10.90;14.80;;;;;;20354995;29;20514;-43
2023/11/01 23:23:53;;;;;;;6.57;1.60;;;10.90;18.70;;;;;;20352203;29;20427;-43
2023/11/01 23:33:53;;;;;;;5.88;1.38;;;11.00;17.30;;;;;;20327158;29;20134;-43
2023/11/01 23:44:01;;;;;;;3.67;1.10;;;10.90;21.00;;;;;;20363106;28;20048;-43
2023/11/01 23:54:01;;;;;;;;;;;10.90;21.70;;;;;;20350173;29;20146;-42
